createdAt,value
2017-11-07T00:01:17.331Z,78.07
2017-11-07T00:03:46.075Z,63.25
2017-11-07T00:06:15.442Z,63.97
2017-11-07T00:08:43.858Z,69.37
2017-11-07T00:11:12.231Z,66.47
2017-11-07T00:13:40.879Z,83.72
2017-11-07T00:16:09.260Z,65.12
2017-11-07T00:18:37.648Z,73.07
2017-11-07T00:21:06.054Z,74.60
2017-11-07T00:23:35.212Z,72.10
2017-11-07T00:26:03.717Z,74.07
2017-11-07T00:28:32.092Z,71.68
2017-11-07T00:31:00.483Z,93.35
2017-11-07T00:33:28.877Z,83.57
2017-11-07T00:35:58.024Z,89.87
2017-11-07T00:38:28.211Z,74.53
2017-11-07T00:40:56.592Z,67.47
2017-11-07T00:43:24.969Z,85.28
2017-11-07T00:45:53.359Z,73.95
2017-11-07T00:48:21.734Z,64.72
2017-11-07T00:50:50.432Z,84.20
2017-11-07T00:53:18.815Z,73.15
2017-11-07T00:55:47.302Z,67.80
2017-11-07T00:58:15.704Z,68.87
2017-11-07T01:00:44.088Z,66.00
2017-11-07T01:03:12.503Z,84.72
2017-11-07T01:05:40.871Z,72.50
2017-11-07T01:08:10.032Z,70.80
2017-11-07T01:10:38.431Z,82.55
2017-11-07T01:13:06.875Z,68.50
2017-11-07T01:15:35.456Z,73.12
2017-11-07T01:18:03.834Z,63.08
2017-11-07T01:20:32.209Z,68.50
2017-11-07T01:23:00.610Z,77.97
2017-11-07T01:25:28.976Z,67.07
2017-11-07T01:27:57.673Z,69.70
2017-11-07T01:30:26.055Z,73.25
2017-11-07T01:32:54.440Z,65.35
2017-11-07T01:35:22.841Z,66.55
2017-11-07T01:37:51.996Z,78.57
2017-11-07T01:40:20.375Z,69.00
2017-11-07T01:42:48.821Z,72.80
2017-11-07T01:45:17.196Z,61.88
2017-11-07T01:47:45.603Z,56.60
2017-11-07T01:50:14.001Z,62.40
2017-11-07T01:52:42.419Z,78.78
2017-11-07T01:55:11.600Z,58.47
2017-11-07T01:57:40.748Z,58.47
2017-11-07T02:00:09.388Z,61.88
2017-11-07T02:02:38.519Z,58.45
2017-11-07T02:05:06.891Z,59.05
2017-11-07T02:07:35.292Z,86.03
2017-11-07T02:10:03.681Z,68.45
2017-11-07T02:12:32.357Z,56.53
2017-11-07T02:15:00.734Z,56.75
2017-11-07T02:17:29.107Z,61.45
2017-11-07T02:19:57.499Z,58.53
2017-11-07T02:22:25.873Z,59.67
2017-11-07T02:24:54.327Z,48.80
2017-11-07T02:27:22.703Z,55.90
2017-11-07T02:29:51.093Z,60.05
2017-11-07T02:32:19.490Z,66.45
2017-11-07T02:34:47.867Z,67.18
2017-11-07T02:37:16.371Z,58.38
2017-11-07T02:39:44.744Z,61.13
2017-11-07T02:42:13.111Z,66.47
2017-11-07T02:44:42.277Z,58.22
2017-11-07T02:47:10.655Z,60.72
2017-11-07T02:49:39.072Z,55.12
2017-11-07T02:52:07.440Z,52.95
2017-11-07T02:54:35.828Z,54.65
2017-11-07T02:57:04.231Z,59.88
2017-11-07T02:59:32.602Z,59.92
2017-11-07T03:02:01.106Z,52.80
2017-11-07T03:04:29.475Z,58.72
2017-11-07T03:06:58.615Z,60.17
2017-11-07T03:09:27.004Z,58.80
2017-11-07T03:11:55.374Z,53.33
2017-11-07T03:14:23.975Z,51.78
2017-11-07T03:16:52.343Z,50.67
2017-11-07T03:19:20.707Z,58.25
2017-11-07T03:21:49.102Z,57.78
2017-11-07T03:24:17.467Z,51.47
2017-11-07T03:26:46.265Z,47.38
2017-11-07T03:29:14.643Z,51.33
2017-11-07T03:31:43.016Z,47.47
2017-11-07T03:34:11.451Z,50.55
2017-11-07T03:36:40.597Z,51.25
2017-11-07T03:39:09.235Z,49.85
2017-11-07T03:41:38.371Z,47.50
2017-11-07T03:44:06.746Z,48.58
2017-11-07T03:46:35.136Z,45.05
2017-11-07T03:49:03.513Z,41.88
2017-11-07T03:51:31.939Z,46.78
2017-11-07T03:54:01.080Z,47.75
2017-11-07T03:56:29.870Z,58.65
2017-11-07T03:58:58.272Z,42.40
2017-11-07T04:01:26.652Z,48.13
2017-11-07T04:03:55.052Z,49.80
2017-11-07T04:06:23.433Z,49.10
2017-11-07T04:08:51.804Z,49.13
2017-11-07T04:11:20.202Z,54.28
2017-11-07T04:13:49.334Z,46.78
2017-11-07T04:16:17.740Z,49.85
2017-11-07T04:18:46.111Z,42.03
2017-11-07T04:21:15.255Z,48.75
2017-11-07T04:23:44.418Z,54.65
2017-11-07T04:26:12.790Z,41.58
2017-11-07T04:28:41.194Z,53.67
2017-11-07T04:31:09.574Z,48.60
2017-11-07T04:33:37.939Z,42.95
2017-11-07T04:36:06.340Z,60.00
2017-11-07T04:38:35.476Z,53.40
2017-11-07T04:41:04.066Z,52.40
2017-11-07T04:43:32.444Z,62.65
2017-11-07T04:46:00.821Z,52.47
2017-11-07T04:48:29.219Z,57.00
2017-11-07T04:50:57.591Z,57.25
2017-11-07T04:53:26.016Z,72.47
2017-11-07T04:55:55.171Z,59.60
2017-11-07T04:58:23.559Z,62.15
2017-11-07T05:00:52.503Z,57.75
2017-11-07T05:03:20.880Z,70.12
2017-11-07T05:05:49.488Z,65.93
2017-11-07T05:08:17.872Z,59.05
2017-11-07T05:10:46.247Z,67.87
2017-11-07T05:13:14.652Z,62.40
2017-11-07T05:15:43.025Z,45.63
2017-11-07T05:18:11.433Z,51.28
2017-11-07T05:20:40.569Z,53.30
2017-11-07T05:23:08.948Z,49.05
2017-11-07T05:25:37.348Z,50.58
2017-11-07T05:28:05.721Z,43.87
2017-11-07T05:30:34.218Z,50.38
2017-11-07T05:33:02.611Z,46.67
2017-11-07T05:35:30.988Z,48.50
2017-11-07T05:37:59.379Z,42.70
2017-11-07T05:40:28.521Z,44.75
2017-11-07T05:42:57.325Z,45.60
2017-11-07T05:45:25.713Z,38.72
2017-11-07T05:47:54.086Z,42.58
2017-11-07T05:50:22.487Z,36.85
2017-11-07T05:52:51.680Z,43.90
2017-11-07T05:55:20.335Z,45.40
2017-11-07T05:57:48.748Z,42.05
2017-11-07T06:00:17.129Z,47.15
2017-11-07T06:02:45.533Z,40.45
2017-11-07T06:05:14.683Z,48.50
2017-11-07T06:07:43.232Z,35.00
2017-11-07T06:10:11.649Z,50.10
2017-11-07T06:12:40.033Z,36.75
2017-11-07T06:15:08.431Z,46.80
2017-11-07T06:17:37.578Z,46.03
2017-11-07T06:20:06.367Z,34.72
2017-11-07T06:22:34.742Z,41.37
2017-11-07T06:25:03.138Z,35.05
2017-11-07T06:27:31.539Z,39.05
2017-11-07T06:29:59.914Z,38.40
2017-11-07T06:32:28.671Z,36.53
2017-11-07T06:34:57.058Z,34.33
2017-11-07T06:37:25.435Z,39.55
2017-11-07T06:39:53.831Z,34.58
2017-11-07T06:42:22.211Z,38.55
2017-11-07T06:44:50.728Z,43.63
2017-11-07T06:47:19.871Z,33.33
2017-11-07T06:49:48.246Z,40.70
2017-11-07T06:52:16.643Z,37.50
2017-11-07T06:54:45.069Z,54.47
2017-11-07T06:57:13.779Z,37.60
2017-11-07T06:59:42.160Z,32.67
2017-11-07T07:02:10.541Z,50.12
2017-11-07T07:04:38.940Z,57.25
2017-11-07T07:07:07.359Z,44.33
2017-11-07T07:09:36.705Z,44.90
2017-11-07T07:12:05.085Z,52.53
2017-11-07T07:14:33.485Z,52.28
2017-11-07T07:17:01.887Z,66.25
2017-11-07T07:19:31.028Z,60.38
2017-11-07T07:21:59.560Z,48.87
2017-11-07T07:24:28.700Z,45.30
2017-11-07T07:26:57.085Z,52.13
2017-11-07T07:29:25.468Z,53.05
2017-11-07T07:31:53.841Z,57.00
2017-11-07T07:34:22.736Z,66.78
2017-11-07T07:36:51.141Z,77.00
2017-11-07T07:39:19.519Z,86.43
2017-11-07T07:41:47.919Z,91.43
2017-11-07T07:44:16.299Z,104.12
2017-11-07T07:46:45.559Z,85.62
2017-11-07T07:49:13.946Z,100.55
2017-11-07T07:51:42.325Z,103.60
2017-11-07T07:54:10.738Z,122.20
2017-11-07T07:56:39.890Z,113.80
2017-11-07T07:59:08.566Z,111.03
2017-11-07T08:01:36.944Z,119.95
2017-11-07T08:04:05.334Z,134.60
2017-11-07T08:06:34.500Z,127.85
2017-11-07T08:09:02.885Z,117.95
2017-11-07T08:11:31.392Z,139.07
2017-11-07T08:13:59.786Z,142.93
2017-11-07T08:16:28.179Z,147.80
2017-11-07T08:18:56.585Z,138.25
2017-11-07T08:21:24.972Z,127.57
2017-11-07T08:23:53.616Z,126.87
2017-11-07T08:26:21.995Z,119.37
2017-11-07T08:28:50.371Z,124.50
2017-11-07T08:31:18.787Z,110.37
2017-11-07T08:33:47.164Z,107.72
2017-11-07T08:36:15.795Z,107.82
2017-11-07T08:38:44.183Z,122.60
2017-11-07T08:41:12.562Z,114.93
2017-11-07T08:43:40.963Z,120.20
2017-11-07T08:46:10.110Z,121.93
2017-11-07T08:48:38.663Z,121.15
2017-11-07T08:51:07.044Z,115.10
2017-11-07T08:53:35.415Z,99.25
2017-11-07T08:56:04.579Z,97.95
2017-11-07T08:58:32.956Z,79.05
2017-11-07T09:01:01.615Z,92.05
2017-11-07T09:03:30.001Z,102.43
2017-11-07T09:05:59.150Z,113.43
2017-11-07T09:08:28.331Z,90.32
2017-11-07T09:10:57.472Z,85.62
2017-11-07T09:13:26.060Z,88.10
2017-11-07T09:15:54.435Z,91.90
2017-11-07T09:18:22.809Z,108.68
2017-11-07T09:20:51.224Z,106.75
2017-11-07T09:23:19.612Z,89.65
2017-11-07T09:25:48.259Z,94.72
2017-11-07T09:28:16.643Z,103.00
2017-11-07T09:30:45.022Z,99.28
2017-11-07T09:33:13.424Z,97.18
2017-11-07T09:35:43.306Z,101.47
2017-11-07T09:38:11.907Z,104.70
2017-11-07T09:40:40.362Z,101.87
2017-11-07T09:43:08.768Z,99.50
2017-11-07T09:45:37.174Z,97.50
2017-11-07T09:48:06.351Z,98.60
2017-11-07T09:50:34.943Z,97.43
2017-11-07T09:53:03.327Z,97.97
2017-11-07T09:55:31.700Z,109.47
2017-11-07T09:58:00.100Z,82.45
2017-11-07T10:00:29.237Z,100.35
2017-11-07T10:02:58.132Z,78.75
2017-11-07T10:05:26.502Z,103.70
2017-11-07T10:07:54.876Z,95.53
2017-11-07T10:10:23.280Z,104.40
2017-11-07T10:12:51.654Z,111.65
2017-11-07T10:15:20.933Z,108.37
2017-11-07T10:17:49.314Z,98.55
2017-11-07T10:20:17.714Z,92.37
2017-11-07T10:22:46.124Z,87.28
2017-11-07T10:25:14.512Z,86.68
2017-11-07T10:27:43.707Z,97.78
2017-11-07T10:30:12.111Z,91.95
2017-11-07T10:32:40.490Z,87.57
2017-11-07T10:35:08.903Z,82.57
2017-11-07T10:37:37.287Z,74.90
2017-11-07T10:40:05.717Z,89.85
2017-11-07T10:42:34.847Z,84.95
2017-11-07T10:45:03.297Z,79.10
2017-11-07T10:47:31.694Z,76.37
2017-11-07T10:50:00.068Z,81.47
2017-11-07T10:52:28.581Z,88.35
2017-11-07T10:54:56.968Z,94.15
2017-11-07T10:57:25.360Z,91.00
2017-11-07T10:59:53.759Z,97.95
2017-11-07T11:02:22.911Z,93.70
2017-11-07T11:04:52.070Z,95.47
2017-11-07T11:07:20.477Z,88.45
2017-11-07T11:09:48.860Z,92.97
2017-11-07T11:12:17.263Z,105.85
2017-11-07T11:14:45.673Z,105.70
2017-11-07T11:17:14.813Z,106.00
2017-11-07T11:19:43.209Z,99.32
2017-11-07T11:22:11.583Z,111.75
2017-11-07T11:24:40.265Z,95.50
2017-11-07T11:27:09.584Z,89.10
2017-11-07T11:29:38.007Z,97.78
2017-11-07T11:32:06.425Z,95.57
2017-11-07T11:34:34.804Z,94.22
2017-11-07T11:37:03.496Z,85.93
2017-11-07T11:39:31.880Z,89.40
2017-11-07T11:42:00.263Z,89.25
2017-11-07T11:44:28.655Z,90.87
2017-11-07T11:46:57.040Z,88.03
2017-11-07T11:49:26.241Z,99.93
2017-11-07T11:51:55.388Z,83.05
2017-11-07T11:54:23.767Z,87.07
2017-11-07T11:56:52.162Z,93.28
2017-11-07T11:59:20.532Z,98.97
2017-11-07T12:01:50.029Z,91.63
2017-11-07T12:04:18.394Z,84.47
2017-11-07T12:06:46.765Z,85.93
2017-11-07T12:09:15.177Z,86.20
2017-11-07T12:11:43.570Z,87.88
2017-11-07T12:14:12.220Z,85.18
2017-11-07T12:16:40.595Z,89.43
2017-11-07T12:19:09.023Z,86.70
2017-11-07T12:21:37.414Z,99.10
2017-11-07T12:24:06.543Z,88.03
2017-11-07T12:26:35.141Z,85.75
2017-11-07T12:29:03.516Z,89.15
2017-11-07T12:31:31.909Z,92.22
2017-11-07T12:34:00.313Z,88.87
2017-11-07T12:36:28.814Z,88.93
2017-11-07T12:38:58.256Z,88.43
2017-11-07T12:41:26.628Z,84.15
2017-11-07T12:43:54.995Z,91.28
2017-11-07T12:46:23.390Z,87.35
2017-11-07T12:48:51.773Z,83.55
2017-11-07T12:54:27.994Z,84.57
2017-11-07T12:56:56.539Z,91.75
2017-11-07T12:59:24.911Z,88.15
2017-11-07T13:01:53.292Z,80.35
2017-11-07T13:04:21.686Z,103.57
2017-11-07T13:06:50.064Z,85.28
2017-11-07T13:09:18.627Z,83.95
2017-11-07T13:11:46.995Z,82.22
2017-11-07T13:14:15.372Z,93.78
2017-11-07T13:16:43.768Z,85.12
2017-11-07T13:19:12.147Z,85.35
2017-11-07T13:21:40.810Z,78.68
2017-11-07T13:24:09.203Z,89.87
2017-11-07T13:26:37.580Z,88.12
2017-11-07T13:29:05.982Z,90.43
2017-11-07T13:31:34.352Z,83.82
2017-11-07T13:34:02.871Z,83.45
2017-11-07T13:36:32.040Z,87.03
2017-11-07T13:39:00.471Z,91.03
2017-11-07T13:41:29.650Z,82.18
2017-11-07T13:43:58.794Z,87.07
2017-11-07T13:46:27.209Z,88.32
2017-11-07T13:48:55.579Z,79.12
2017-11-07T13:51:23.952Z,80.78
2017-11-07T13:53:52.357Z,98.82
2017-11-07T13:56:20.744Z,90.25
2017-11-07T13:58:49.963Z,84.62
2017-11-07T14:01:18.342Z,77.85
2017-11-07T14:03:46.717Z,89.65
2017-11-07T14:06:15.118Z,94.25
2017-11-07T14:08:43.528Z,81.05
2017-11-07T14:11:12.099Z,83.15
2017-11-07T14:13:40.500Z,86.32
2017-11-07T14:16:08.926Z,81.75
2017-11-07T14:18:37.388Z,75.47
2017-11-07T14:21:06.519Z,79.90
2017-11-07T14:23:35.109Z,75.07
2017-11-07T14:26:03.517Z,91.50
2017-11-07T14:28:31.886Z,82.85
2017-11-07T14:31:00.296Z,77.30
2017-11-07T14:33:29.433Z,81.75
2017-11-07T14:35:58.020Z,89.90
2017-11-07T14:38:26.388Z,85.07
2017-11-07T14:40:54.766Z,77.85
2017-11-07T14:43:23.163Z,77.93
2017-11-07T14:45:51.557Z,81.93
2017-11-07T14:48:20.205Z,78.90
2017-11-07T14:50:48.581Z,86.07
2017-11-07T14:53:16.959Z,89.00
2017-11-07T14:55:45.351Z,76.30
2017-11-07T14:58:13.727Z,91.75
2017-11-07T15:00:42.321Z,90.75
2017-11-07T15:03:10.687Z,89.10
2017-11-07T15:05:39.089Z,88.07
2017-11-07T15:08:07.603Z,80.78
2017-11-07T15:10:36.746Z,97.35
2017-11-07T15:13:05.401Z,81.22
2017-11-07T15:15:34.547Z,90.40
2017-11-07T15:18:03.048Z,92.43
2017-11-07T15:20:32.039Z,96.80
2017-11-07T15:23:00.412Z,91.25
2017-11-07T15:25:29.069Z,98.70
2017-11-07T15:27:57.475Z,98.97
2017-11-07T15:30:25.852Z,86.80
2017-11-07T15:32:54.291Z,90.03
2017-11-07T15:35:22.713Z,75.65
2017-11-07T15:37:51.216Z,85.97
2017-11-07T15:40:20.355Z,76.60
2017-11-07T15:42:48.732Z,90.00
2017-11-07T15:45:17.155Z,78.97
2017-11-07T15:47:45.529Z,82.43
2017-11-07T15:50:14.188Z,84.75
2017-11-07T15:52:42.560Z,78.95
2017-11-07T15:55:10.927Z,80.45
2017-11-07T15:57:39.315Z,84.43
2017-11-07T16:00:07.687Z,77.47
2017-11-07T16:02:36.420Z,82.35
2017-11-07T16:05:05.588Z,84.65
2017-11-07T16:07:33.963Z,75.80
2017-11-07T16:10:02.373Z,83.80
2017-11-07T16:12:30.748Z,86.03
2017-11-07T16:14:59.398Z,93.68
2017-11-07T16:17:27.775Z,85.70
2017-11-07T16:19:56.142Z,84.62
2017-11-07T16:22:24.536Z,76.25
2017-11-07T16:24:52.907Z,86.10
2017-11-07T16:27:21.430Z,87.68
2017-11-07T16:29:50.738Z,91.12
2017-11-07T16:32:19.120Z,79.78
2017-11-07T16:34:47.515Z,80.25
2017-11-07T16:37:16.660Z,80.45
2017-11-07T16:39:45.226Z,90.65
2017-11-07T16:42:13.604Z,86.85
2017-11-07T16:44:41.983Z,87.47
2017-11-07T16:47:10.390Z,90.55
2017-11-07T16:49:38.766Z,84.70
2017-11-07T16:52:07.325Z,86.43
2017-11-07T16:54:35.704Z,97.20
2017-11-07T16:57:04.083Z,87.47
2017-11-07T16:59:32.474Z,77.28
2017-11-07T17:02:00.843Z,86.60
2017-11-07T17:04:29.256Z,87.53
2017-11-07T17:06:57.624Z,92.60
2017-11-07T17:09:26.003Z,84.68
2017-11-07T17:11:54.403Z,87.32
2017-11-07T17:14:23.547Z,87.15
2017-11-07T17:16:52.332Z,84.60
2017-11-07T17:19:20.703Z,77.10
2017-11-07T17:21:49.081Z,83.40
2017-11-07T17:24:17.475Z,77.25
2017-11-07T17:26:46.105Z,78.50
2017-11-07T17:29:14.531Z,82.82
2017-11-07T17:31:42.903Z,84.22
2017-11-07T17:34:11.356Z,87.32
2017-11-07T17:36:40.534Z,78.53
2017-11-07T17:39:08.919Z,80.43
2017-11-07T17:41:38.272Z,90.25
2017-11-07T17:44:06.986Z,76.10
2017-11-07T17:46:35.360Z,84.37
2017-11-07T17:49:03.761Z,79.72
2017-11-07T17:51:32.139Z,79.15
2017-11-07T17:54:00.563Z,78.50
2017-11-07T17:56:28.943Z,78.37
2017-11-07T17:58:57.319Z,81.90
2017-11-07T18:01:25.727Z,72.45
2017-11-07T18:03:54.107Z,79.05
2017-11-07T18:06:22.758Z,83.40
2017-11-07T18:08:51.153Z,84.80
2017-11-07T18:11:19.643Z,85.93
2017-11-07T18:13:48.229Z,83.45
2017-11-07T18:16:16.728Z,86.37
2017-11-07T18:18:45.913Z,87.37
2017-11-07T18:21:14.303Z,82.75
2017-11-07T18:23:42.689Z,71.97
2017-11-07T18:26:11.088Z,84.62
2017-11-07T18:28:40.253Z,85.55
2017-11-07T18:31:08.819Z,74.22
2017-11-07T18:33:37.240Z,83.82
2017-11-07T18:36:05.639Z,85.18
2017-11-07T18:38:34.322Z,83.90
2017-11-07T18:41:03.467Z,91.40
2017-11-07T18:43:31.836Z,95.65
2017-11-07T18:46:00.240Z,94.95
2017-11-07T18:48:28.702Z,98.15
2017-11-07T18:50:57.125Z,96.70
2017-11-07T18:53:26.265Z,100.72
2017-11-07T18:55:54.635Z,90.90
2017-11-07T18:58:23.063Z,90.12
2017-11-07T19:00:51.451Z,100.00
2017-11-07T19:03:20.910Z,97.62
2017-11-07T19:05:49.287Z,90.80
2017-11-07T19:08:17.654Z,99.57
2017-11-07T19:10:46.052Z,105.07
2017-11-07T19:13:14.427Z,98.57
2017-11-07T19:15:42.956Z,88.18
2017-11-07T19:18:12.099Z,91.03
2017-11-07T19:20:40.476Z,104.30
2017-11-07T19:23:08.871Z,109.95
2017-11-07T19:25:37.564Z,98.05
2017-11-07T19:28:06.427Z,86.85
2017-11-07T19:30:35.102Z,98.72
2017-11-07T19:33:03.762Z,102.55
2017-11-07T19:35:32.442Z,103.87
2017-11-07T19:38:01.170Z,91.20
2017-11-07T19:40:29.762Z,98.45
2017-11-07T19:42:58.160Z,91.05
2017-11-07T19:45:26.553Z,104.05
2017-11-07T19:47:54.953Z,100.90
2017-11-07T19:50:24.091Z,90.45
2017-11-07T19:52:52.878Z,102.45
2017-11-07T19:55:21.404Z,110.88
2017-11-07T19:57:50.551Z,96.35
2017-11-07T20:00:18.990Z,111.82
2017-11-07T20:02:48.195Z,92.75
2017-11-07T20:05:17.641Z,98.90
2017-11-07T20:07:46.043Z,117.50
2017-11-07T20:10:16.330Z,104.28
2017-11-07T20:12:44.811Z,87.95
2017-11-07T20:15:13.305Z,108.95
2017-11-07T20:17:42.562Z,95.32
2017-11-07T20:20:10.953Z,106.68
2017-11-07T20:22:39.777Z,85.78
2017-11-07T20:25:08.690Z,93.75
2017-11-07T20:27:37.059Z,103.72
2017-11-07T20:30:05.484Z,108.70
2017-11-07T20:32:33.871Z,90.10
2017-11-07T20:35:02.483Z,88.43
2017-11-07T20:37:30.929Z,93.75
2017-11-07T20:39:59.341Z,92.93
2017-11-07T20:42:28.233Z,100.47
2017-11-07T20:44:56.654Z,107.75
2017-11-07T20:47:25.358Z,88.28
2017-11-07T20:49:53.759Z,103.40
2017-11-07T20:52:22.131Z,92.07
2017-11-07T20:54:50.905Z,88.70
2017-11-07T20:57:19.289Z,97.20
2017-11-07T20:59:47.807Z,98.90
2017-11-07T21:02:17.014Z,84.57
2017-11-07T21:04:45.395Z,104.95
2017-11-07T21:07:14.143Z,95.35
2017-11-07T21:09:42.536Z,86.60
2017-11-07T21:12:11.036Z,81.97
2017-11-07T21:14:39.431Z,90.75
2017-11-07T21:17:07.886Z,92.37
2017-11-07T21:19:37.379Z,90.90
2017-11-07T21:22:05.792Z,97.65
2017-11-07T21:24:34.364Z,96.80
2017-11-07T21:27:02.794Z,104.35
2017-11-07T21:29:31.237Z,103.12
2017-11-07T21:32:00.439Z,97.82
2017-11-07T21:34:28.810Z,106.37
2017-11-07T21:36:57.207Z,92.15
2017-11-07T21:39:26.383Z,100.40
2017-11-07T21:41:54.751Z,103.40
2017-11-07T21:44:23.273Z,103.45
2017-11-07T21:46:52.410Z,99.43
2017-11-07T21:49:20.788Z,108.63
2017-11-07T21:51:49.211Z,106.78
2017-11-07T21:54:17.597Z,104.82
2017-11-07T21:56:46.878Z,115.25
2017-11-07T21:59:15.263Z,122.43
2017-11-07T22:01:43.631Z,127.15
2017-11-07T22:04:12.020Z,130.00
2017-11-07T22:06:40.431Z,141.35
2017-11-07T22:09:08.831Z,156.77
2017-11-07T22:11:37.199Z,164.55
2017-11-07T22:14:05.576Z,140.00
2017-11-07T22:16:53.555Z,150.32
2017-11-07T22:19:21.941Z,160.43
2017-11-07T22:21:50.505Z,136.65
2017-11-07T22:24:18.885Z,138.30
2017-11-07T22:26:53.635Z,139.35
2017-11-07T22:29:22.015Z,148.50
2017-11-07T22:31:50.659Z,133.77
2017-11-07T22:34:19.044Z,137.32
2017-11-07T22:36:47.452Z,136.82
2017-11-07T22:39:15.854Z,135.05
2017-11-07T22:41:44.986Z,132.15
2017-11-07T22:44:13.507Z,146.02
2017-11-07T22:46:41.874Z,134.93
2017-11-07T22:49:10.242Z,125.97
2017-11-07T22:51:38.654Z,130.93
2017-11-07T22:54:07.027Z,115.90
2017-11-07T22:56:35.779Z,90.22
2017-11-07T22:59:04.160Z,89.07
2017-11-07T23:01:32.541Z,92.12
2017-11-07T23:04:00.928Z,80.68
2017-11-07T23:06:29.295Z,80.87
2017-11-07T23:08:57.807Z,89.35
2017-11-07T23:11:26.183Z,83.65
2017-11-07T23:13:54.550Z,73.53
2017-11-07T23:16:22.939Z,69.18
2017-11-07T23:18:51.316Z,72.10
2017-11-07T23:21:19.721Z,50.50
2017-11-07T23:23:48.851Z,61.00
2017-11-07T23:26:17.244Z,54.47
2017-11-07T23:28:45.643Z,54.30
2017-11-07T23:31:14.015Z,56.50
2017-11-07T23:33:42.430Z,64.07
2017-11-07T23:36:11.563Z,57.20
2017-11-07T23:38:39.930Z,51.37
2017-11-07T23:41:08.319Z,53.47
2017-11-07T23:43:36.691Z,49.67
2017-11-07T23:46:05.286Z,45.03
2017-11-07T23:48:33.684Z,49.05
2017-11-07T23:51:02.057Z,50.72
2017-11-07T23:53:30.462Z,51.75
2017-11-07T23:55:58.841Z,50.65
2017-11-07T23:58:30.237Z,62.45
